Time;durP1;ratioP1;P1;durP2;ratioP2;P2;SDS_P1;SDS_P2;PMS_P1;PMS_P2;Temp;Humidity;BMP_temperature;BMP_pressure;BME280_temperature;BME280_humidity;BME280_pressure;Samples;Min_cycle;Max_cycle;Signal;HPM_P1;HPM_P2
2022/11/11 00:02:01;;;;;;;;;;;12.80;99.90;;;;;;5032664;28;19979;-73
2022/11/11 00:04:27;;;;;;;;;;;12.80;99.90;;;;;;5030556;28;19971;-74
2022/11/11 00:06:52;;;;;;;;;;;12.80;99.90;;;;;;5029421;28;19928;-74
2022/11/11 00:09:18;;;;;;;;;;;12.70;99.90;;;;;;5031107;28;20007;-73
2022/11/11 00:11:43;;;;;;;;;;;12.80;99.90;;;;;;5032058;28;19921;-73
2022/11/11 00:14:09;;;;;;;;;;;12.80;99.90;;;;;;5014253;28;20284;-73
2022/11/11 00:25:07;;;;;;;;;;;12.80;99.90;;;;;;5007632;28;19929;-73
2022/11/11 00:27:33;;;;;;;;;;;12.70;99.90;;;;;;5033387;28;19925;-74
2022/11/11 00:29:58;;;;;;;;;;;13.00;99.90;;;;;;5031008;28;19925;-73
2022/11/11 00:32:27;;;;;;;;;;;13.00;99.90;;;;;;5030576;28;20379;-73
2022/11/11 00:37:38;;;;;;;;;;;12.70;99.90;;;;;;5031128;28;20287;-73
2022/11/11 00:40:04;;;;;;;;;;;14.00;99.90;;;;;;5032200;28;19921;-73
2022/11/11 00:42:30;;;;;;;;;;;12.90;99.90;;;;;;5031928;28;19932;-74
2022/11/11 00:44:55;;;;;;;;;;;12.90;99.90;;;;;;5029739;28;19921;-73
2022/11/11 00:53:21;;;;;;;;;;;13.20;99.90;;;;;;5011056;28;20395;-73
2022/11/11 00:55:46;;;;;;;;;;;13.10;99.90;;;;;;5031367;28;19921;-73
2022/11/11 00:58:12;;;;;;;;;;;12.80;99.90;;;;;;5043219;28;19921;-74
2022/11/11 01:00:37;;;;;;;;;;;12.90;99.90;;;;;;5026104;28;19921;-73
2022/11/11 01:03:03;;;;;;;;;;;13.00;99.90;;;;;;5032110;28;19932;-73
2022/11/11 01:05:29;;;;;;;;;;;13.10;99.90;;;;;;5030180;28;19921;-73
2022/11/11 01:07:54;;;;;;;;;;;13.00;99.90;;;;;;5031642;28;19932;-72
2022/11/11 01:13:12;;;;;;;;;;;13.30;99.90;;;;;;5030788;28;20276;-73
2022/11/11 01:15:41;;;;;;;;;;;13.90;99.90;;;;;;5029746;28;19971;-73
2022/11/11 01:18:07;;;;;;;;;;;13.20;99.90;;;;;;5014528;28;20329;-73
2022/11/11 01:20:33;;;;;;;;;;;13.20;99.90;;;;;;5017563;28;19976;-73
2022/11/11 01:22:58;;;;;;;;;;;13.00;99.90;;;;;;5035315;28;19929;-73
2022/11/11 01:25:24;;;;;;;;;;;13.00;99.90;;;;;;5033007;28;19964;-73
2022/11/11 01:27:49;;;;;;;;;;;13.30;99.90;;;;;;5033771;28;19921;-73
2022/11/11 01:30:15;;;;;;;;;;;12.80;99.90;;;;;;5017768;28;20634;-73
2022/11/11 01:32:40;;;;;;;;;;;13.10;99.90;;;;;;5034966;28;19921;-73
2022/11/11 01:35:06;;;;;;;;;;;13.10;99.90;;;;;;5034629;28;20426;-73
2022/11/11 01:37:32;;;;;;;;;;;12.90;99.90;;;;;;5017137;28;19986;-73
2022/11/11 01:39:57;;;;;;;;;;;12.90;99.90;;;;;;5034088;28;19944;-73
2022/11/11 01:42:23;;;;;;;;;;;12.80;99.90;;;;;;5034994;28;19932;-73
2022/11/11 01:44:48;;;;;;;;;;;13.00;99.90;;;;;;5034201;28;20382;-73
2022/11/11 01:47:16;;;;;;;;;;;13.00;99.90;;;;;;5033602;28;19932;-74
2022/11/11 01:49:42;;;;;;;;;;;13.00;99.90;;;;;;5033693;28;20291;-73
2022/11/11 01:52:12;;;;;;;;;;;13.00;99.90;;;;;;5033464;28;19928;-73
2022/11/11 01:54:38;;;;;;;;;;;13.20;99.90;;;;;;5034178;28;20392;-73
2022/11/11 01:57:24;;;;;;;;;;;13.10;99.90;;;;;;5033444;28;20054;-73
2022/11/11 01:59:52;;;;;;;;;;;12.90;99.90;;;;;;5033388;28;19969;-73
2022/11/11 02:02:20;;;;;;;;;;;13.00;99.90;;;;;;5033542;28;20357;-73
2022/11/11 02:07:32;;;;;;;;;;;12.80;99.90;;;;;;5033148;28;20008;-74
2022/11/11 02:09:58;;;;;;;;;;;13.00;99.90;;;;;;5034606;28;19928;-73
2022/11/11 02:15:08;;;;;;;;;;;13.20;99.90;;;;;;5032478;28;19928;-74
2022/11/11 02:17:33;;;;;;;;;;;13.00;99.90;;;;;;5033069;28;19925;-73
2022/11/11 02:20:00;;;;;;;;;;;13.10;99.90;;;;;;5034095;28;19950;-73
2022/11/11 02:22:35;;;;;;;;;;;12.70;99.90;;;;;;5032926;28;19925;-73
2022/11/11 02:25:02;;;;;;;;;;;13.00;99.90;;;;;;5033300;28;19979;-73
2022/11/11 02:27:28;;;;;;;;;;;12.80;99.90;;;;;;5032421;28;19932;-73
2022/11/11 02:29:55;;;;;;;;;;;12.80;99.90;;;;;;5032762;28;20383;-73
2022/11/11 02:32:20;;;;;;;;;;;13.00;99.90;;;;;;5034297;28;19921;-73
2022/11/11 02:34:46;;;;;;;;;;;12.70;99.90;;;;;;5033228;28;19921;-74
2022/11/11 02:37:12;;;;;;;;;;;;;;;;;;5032353;28;20015;-73
2022/11/11 02:39:41;;;;;;;;;;;12.60;99.90;;;;;;5032650;28;20294;-73
2022/11/11 02:42:09;;;;;;;;;;;12.30;99.90;;;;;;5033630;28;19925;-73
2022/11/11 02:44:36;;;;;;;;;;;12.50;99.90;;;;;;5032063;28;20009;-73
2022/11/11 02:47:01;;;;;;;;;;;12.50;99.90;;;;;;5033557;28;19925;-73
2022/11/11 02:49:27;;;;;;;;;;;12.60;99.90;;;;;;5033754;28;20387;-74
2022/11/11 02:51:52;;;;;;;;;;;12.70;99.90;;;;;;5033444;28;19928;-73
2022/11/11 02:54:18;;;;;;;;;;;12.40;99.90;;;;;;5031987;28;19928;-74
2022/11/11 02:59:27;;;;;;;;;;;12.40;99.90;;;;;;5033251;28;19970;-74
2022/11/11 03:01:53;;;;;;;;;;;12.40;99.90;;;;;;5033521;28;19979;-73
2022/11/11 03:04:18;;;;;;;;;;;12.50;99.90;;;;;;5031563;28;19928;-73
2022/11/11 03:06:44;;;;;;;;;;;12.40;99.90;;;;;;5033404;28;19921;-73
2022/11/11 03:09:09;;;;;;;;;;;12.20;99.90;;;;;;5032118;28;19974;-73
2022/11/11 03:11:37;;;;;;;;;;;12.50;99.90;;;;;;5033310;28;19927;-73
2022/11/11 03:14:03;;;;;;;;;;;12.20;99.90;;;;;;5032238;28;19921;-73
2022/11/11 03:19:12;;;;;;;;;;;12.40;99.90;;;;;;5031856;28;20567;-73
2022/11/11 03:21:38;;;;;;;;;;;13.60;99.90;;;;;;5044495;28;19921;-73
2022/11/11 03:24:04;;;;;;;;;;;12.20;99.90;;;;;;5046343;28;19960;-73
2022/11/11 03:26:29;;;;;;;;;;;12.40;99.90;;;;;;5046472;28;19947;-73
2022/11/11 03:28:55;;;;;;;;;;;12.20;99.90;;;;;;5035136;28;19921;-74
2022/11/11 03:31:20;;;;;;;;;;;12.30;99.90;;;;;;5030941;28;19936;-73
2022/11/11 03:33:46;;;;;;;;;;;12.20;99.90;;;;;;5031199;28;19921;-73
2022/11/11 03:36:11;;;;;;;;;;;12.40;99.90;;;;;;5030802;28;19957;-73
2022/11/11 03:38:37;;;;;;;;;;;12.40;99.90;;;;;;5033012;28;19928;-73
2022/11/11 03:41:03;;;;;;;;;;;12.10;99.90;;;;;;5031190;28;19964;-72
2022/11/11 03:43:29;;;;;;;;;;;12.30;99.90;;;;;;5031604;28;19925;-73
2022/11/11 03:45:56;;;;;;;;;;;12.30;99.90;;;;;;5031724;28;19924;-73
2022/11/11 03:48:22;;;;;;;;;;;12.20;99.90;;;;;;5032254;28;19928;-73
2022/11/11 03:50:48;;;;;;;;;;;12.40;99.90;;;;;;5032720;28;19921;-73
2022/11/11 03:53:14;;;;;;;;;;;12.20;99.90;;;;;;5031522;28;20011;-73
2022/11/11 03:55:40;;;;;;;;;;;12.40;99.90;;;;;;5014194;28;19921;-73
2022/11/11 03:58:06;;;;;;;;;;;12.20;99.90;;;;;;5032222;28;20477;-74
2022/11/11 04:00:31;;;;;;;;;;;12.10;99.90;;;;;;5031387;28;19983;-73
2022/11/11 04:11:23;;;;;;;;;;;12.30;99.90;;;;;;5031131;28;19952;-73
2022/11/11 04:16:32;;;;;;;;;;;12.30;99.90;;;;;;5032503;28;19921;-73
2022/11/11 04:21:42;;;;;;;;;;;12.20;99.90;;;;;;5032284;28;19979;-73
2022/11/11 04:26:57;;;;;;;;;;;12.00;99.90;;;;;;5030813;28;19925;-73
2022/11/11 04:29:29;;;;;;;;;;;12.80;99.90;;;;;;5031088;28;19928;-73
2022/11/11 04:34:40;;;;;;;;;;;12.30;99.90;;;;;;5030200;28;20331;-73
2022/11/11 04:37:05;;;;;;;;;;;12.20;99.90;;;;;;5031687;28;20419;-73
2022/11/11 04:42:15;;;;;;;;;;;12.10;99.90;;;;;;5030564;28;19929;-73
2022/11/11 04:47:24;;;;;;;;;;;12.10;99.90;;;;;;5030662;28;20311;-74
2022/11/11 04:49:50;;;;;;;;;;;12.20;99.90;;;;;;5032393;28;19921;-74
2022/11/11 04:52:28;;;;;;;;;;;12.00;99.90;;;;;;5015336;28;20191;-74
2022/11/11 04:57:39;;;;;;;;;;;12.00;99.90;;;;;;5037110;28;20054;-74
2022/11/11 05:00:05;;;;;;;;;;;12.10;99.90;;;;;;5038959;28;19933;-72
2022/11/11 05:05:15;;;;;;;;;;;12.20;99.90;;;;;;5036751;28;19975;-72
2022/11/11 05:10:24;;;;;;;;;;;12.20;99.90;;;;;;5037308;28;20476;-72
2022/11/11 05:12:50;;;;;;;;;;;11.90;99.90;;;;;;5038881;28;19925;-72
2022/11/11 05:26:24;;;;;;;;;;;12.00;99.90;;;;;;5012909;28;19921;-72
2022/11/11 05:28:49;;;;;;;;;;;11.60;99.90;;;;;;5034619;28;19921;-72
2022/11/11 05:31:14;;;;;;;;;;;11.70;99.90;;;;;;5034120;28;19925;-72
2022/11/11 05:33:40;;;;;;;;;;;11.70;99.90;;;;;;5034642;28;19921;-71
2022/11/11 05:36:06;;;;;;;;;;;11.60;99.90;;;;;;5033803;28;19928;-74
2022/11/11 05:38:31;;;;;;;;;;;11.80;99.90;;;;;;5034238;28;19940;-72
2022/11/11 05:40:57;;;;;;;;;;;11.80;99.90;;;;;;5035644;28;20409;-72
2022/11/11 05:43:22;;;;;;;;;;;11.60;99.90;;;;;;5040564;28;20383;-72
2022/11/11 05:45:48;;;;;;;;;;;11.70;99.90;;;;;;5046315;28;19921;-72
2022/11/11 05:48:13;;;;;;;;;;;11.80;99.90;;;;;;5046821;28;19921;-71
2022/11/11 05:50:41;;;;;;;;;;;11.70;99.90;;;;;;5047332;28;19944;-72
2022/11/11 05:53:06;;;;;;;;;;;12.00;99.90;;;;;;5037643;28;19924;-73
2022/11/11 05:55:32;;;;;;;;;;;12.10;99.90;;;;;;5035843;28;20276;-72
2022/11/11 05:57:57;;;;;;;;;;;11.90;99.90;;;;;;5033523;28;19955;-72
2022/11/11 06:00:23;;;;;;;;;;;12.00;99.90;;;;;;5033886;28;19971;-72
2022/11/11 06:02:48;;;;;;;;;;;12.20;99.90;;;;;;5035133;28;20368;-72
2022/11/11 06:05:14;;;;;;;;;;;12.20;99.90;;;;;;5033738;28;20492;-72
2022/11/11 06:07:39;;;;;;;;;;;12.00;99.90;;;;;;5015110;28;19921;-71
2022/11/11 06:13:01;;;;;;;;;;;12.10;99.90;;;;;;5034395;28;19928;-72
2022/11/11 06:15:27;;;;;;;;;;;12.10;99.90;;;;;;5034195;28;19995;-72
2022/11/11 06:17:53;;;;;;;;;;;12.10;99.90;;;;;;5032751;28;20443;-72
2022/11/11 06:20:18;;;;;;;;;;;12.10;99.90;;;;;;5034235;28;19921;-72
2022/11/11 06:22:55;;;;;;;;;;;11.90;99.90;;;;;;5034257;28;19929;-72
2022/11/11 06:28:09;;;;;;;;;;;12.20;99.90;;;;;;5067242;22;19931;-76
2022/11/11 06:30:34;;;;;;;;;;;12.40;99.90;;;;;;5051173;28;19924;-76
2022/11/11 06:33:00;;;;;;;;;;;12.30;99.90;;;;;;5053259;28;19929;-77
2022/11/11 06:35:25;;;;;;;;;;;12.20;99.90;;;;;;5053102;28;19920;-76
2022/11/11 06:37:51;;;;;;;;;;;12.20;99.90;;;;;;5054176;28;19924;-76
2022/11/11 06:40:17;;;;;;;;;;;;;;;;;;5046436;28;19928;-76
2022/11/11 06:42:43;;;;;;;;;;;12.10;99.90;;;;;;5030577;28;19932;-75
2022/11/11 06:45:08;;;;;;;;;;;12.10;99.90;;;;;;5036236;28;19921;-76
2022/11/11 06:47:34;;;;;;;;;;;12.40;99.90;;;;;;5050657;28;19927;-76
2022/11/11 06:49:59;;;;;;;;;;;12.30;99.90;;;;;;5053384;28;20029;-76
2022/11/11 06:52:25;;;;;;;;;;;12.20;99.90;;;;;;5053033;28;20406;-76
2022/11/11 06:54:50;;;;;;;;;;;12.20;99.90;;;;;;5050368;28;19924;-76
2022/11/11 06:57:16;;;;;;;;;;;12.20;99.90;;;;;;5052291;28;20299;-76
2022/11/11 06:59:42;;;;;;;;;;;;;;;;;;5034958;28;20133;-75
2022/11/11 07:02:11;;;;;;;;;;;12.20;99.90;;;;;;5042412;28;20357;-75
2022/11/11 07:04:36;;;;;;;;;;;12.10;99.90;;;;;;5049232;28;19921;-76
2022/11/11 07:07:02;;;;;;;;;;;12.20;99.90;;;;;;5049915;28;20409;-76
2022/11/11 07:09:28;;;;;;;;;;;12.20;99.90;;;;;;5050911;28;19927;-75
2022/11/11 07:11:54;;;;;;;;;;;;;;;;;;5056127;28;20011;-75
2022/11/11 07:14:19;;;;;;;;;;;;;;;;;;5048121;28;19927;-76
2022/11/11 07:16:45;;;;;;;;;;;12.10;99.90;;;;;;5046128;28;19944;-75
2022/11/11 07:19:10;;;;;;;;;;;12.10;99.90;;;;;;5028720;28;20574;-75
2022/11/11 07:21:36;;;;;;;;;;;12.20;99.90;;;;;;5050762;28;19952;-75
2022/11/11 07:24:04;;;;;;;;;;;11.90;99.90;;;;;;5049414;28;19936;-76
2022/11/11 07:26:29;;;;;;;;;;;;;;;;;;5050209;28;20279;-75
2022/11/11 07:28:55;;;;;;;;;;;12.10;99.90;;;;;;5055105;28;19932;-75
2022/11/11 07:31:21;;;;;;;;;;;;;;;;;;5038600;28;19935;-75
2022/11/11 07:33:47;;;;;;;;;;;12.10;99.90;;;;;;5028587;28;19925;-75
2022/11/11 07:36:12;;;;;;;;;;;12.00;99.90;;;;;;5040712;28;20019;-76
2022/11/11 07:38:38;;;;;;;;;;;;;;;;;;5045616;28;20008;-76
2022/11/11 07:41:04;;;;;;;;;;;12.00;99.90;;;;;;5028051;28;20322;-76
2022/11/11 07:43:30;;;;;;;;;;;;;;;;;;5044478;28;19931;-76
2022/11/11 07:45:55;;;;;;;;;;;12.20;99.90;;;;;;5033712;28;19935;-76
2022/11/11 07:48:20;;;;;;;;;;;12.30;99.90;;;;;;5044490;28;20015;-76
2022/11/11 07:50:46;;;;;;;;;;;;;;;;;;5043890;28;20356;-76
2022/11/11 07:53:12;;;;;;;;;;;12.10;99.90;;;;;;5043508;28;19960;-76
2022/11/11 07:55:37;;;;;;;;;;;12.20;99.90;;;;;;5046563;28;20313;-76
2022/11/11 07:58:03;;;;;;;;;;;12.10;99.90;;;;;;5042893;28;19932;-76
2022/11/11 08:00:28;;;;;;;;;;;12.20;99.90;;;;;;5041978;28;20485;-76
2022/11/11 08:02:54;;;;;;;;;;;12.10;99.90;;;;;;5046580;28;19925;-76
2022/11/11 08:05:19;;;;;;;;;;;12.10;99.90;;;;;;5046653;28;20004;-76
2022/11/11 08:07:45;;;;;;;;;;;12.10;99.90;;;;;;5048286;28;19932;-76
2022/11/11 08:10:11;;;;;;;;;;;12.00;99.90;;;;;;5048123;28;19920;-76
2022/11/11 08:15:21;;;;;;;;;;;11.90;99.90;;;;;;5050665;28;19925;-75
2022/11/11 08:17:46;;;;;;;;;;;12.10;99.90;;;;;;5049135;28;19920;-76
2022/11/11 08:20:12;;;;;;;;;;;11.90;99.90;;;;;;5044626;28;19967;-76
2022/11/11 08:22:41;;;;;;;;;;;12.10;99.90;;;;;;5045091;28;19973;-75
2022/11/11 08:25:08;;;;;;;;;;;12.00;99.90;;;;;;5031781;28;19928;-76
2022/11/11 08:27:34;;;;;;;;;;;;;;;;;;5033986;28;19960;-75
2022/11/11 08:29:59;;;;;;;;;;;12.00;99.90;;;;;;5053294;28;20356;-76
2022/11/11 08:32:25;;;;;;;;;;;11.80;99.90;;;;;;5060419;28;19931;-76
2022/11/11 08:34:50;;;;;;;;;;;12.20;99.90;;;;;;5072043;28;19925;-76
2022/11/11 08:37:16;;;;;;;;;;;12.20;99.90;;;;;;5053979;28;20370;-76
2022/11/11 08:39:41;;;;;;;;;;;12.00;99.90;;;;;;5048256;28;19929;-76
2022/11/11 08:42:07;;;;;;;;;;;12.10;99.90;;;;;;5035394;28;19964;-76
2022/11/11 08:44:32;;;;;;;;;;;12.00;99.90;;;;;;5053171;28;20006;-76
2022/11/11 08:46:57;;;;;;;;;;;12.10;99.90;;;;;;5052883;28;19927;-76
2022/11/11 08:49:23;;;;;;;;;;;11.90;99.90;;;;;;5052578;28;19921;-75
2022/11/11 08:51:48;;;;;;;;;;;11.80;99.90;;;;;;5053626;28;19951;-75
2022/11/11 08:54:14;;;;;;;;;;;11.80;99.90;;;;;;5053845;28;19928;-76
2022/11/11 08:56:39;;;;;;;;;;;12.00;99.90;;;;;;5036058;28;20501;-75
2022/11/11 08:59:05;;;;;;;;;;;11.90;99.90;;;;;;5052610;28;20019;-76
2022/11/11 09:01:30;;;;;;;;;;;12.00;99.90;;;;;;5051640;28;20019;-76
2022/11/11 09:03:56;;;;;;;;;;;11.80;99.90;;;;;;5051287;28;19932;-75
2022/11/11 09:06:22;;;;;;;;;;;11.60;99.90;;;;;;5054270;28;19932;-76
2022/11/11 09:08:47;;;;;;;;;;;11.80;99.90;;;;;;5052482;28;20442;-76
2022/11/11 09:11:13;;;;;;;;;;;11.90;99.90;;;;;;5052926;28;19964;-76
2022/11/11 09:13:39;;;;;;;;;;;12.10;99.90;;;;;;5052259;28;19978;-76
2022/11/11 09:16:05;;;;;;;;;;;11.90;99.90;;;;;;5051628;28;19937;-76
2022/11/11 09:18:31;;;;;;;;;;;11.80;99.90;;;;;;5051054;28;20003;-76
2022/11/11 09:21:00;;;;;;;;;;;12.10;99.90;;;;;;5052844;28;20020;-76
2022/11/11 09:23:25;;;;;;;;;;;11.80;99.90;;;;;;5054864;28;19933;-76
2022/11/11 09:25:51;;;;;;;;;;;11.80;99.90;;;;;;5052357;28;20487;-76
2022/11/11 09:28:16;;;;;;;;;;;11.90;99.90;;;;;;5054154;28;19925;-76
2022/11/11 09:30:42;;;;;;;;;;;12.00;99.90;;;;;;5062990;28;19929;-76
2022/11/11 09:33:08;;;;;;;;;;;11.90;99.90;;;;;;5056682;28;19921;-74
2022/11/11 09:35:34;;;;;;;;;;;12.00;99.90;;;;;;5052562;28;19920;-73
2022/11/11 09:38:00;;;;;;;;;;;12.10;99.90;;;;;;5052582;28;19925;-76
2022/11/11 09:40:27;;;;;;;;;;;11.80;99.90;;;;;;5053232;28;19928;-76
2022/11/11 09:43:02;;;;;;;;;;;11.70;99.90;;;;;;5053969;28;20024;-76
2022/11/11 09:45:39;;;;;;;;;;;11.80;99.90;;;;;;5052907;28;19971;-76
2022/11/11 09:48:13;;;;;;;;;;;12.00;99.90;;;;;;5052920;28;19921;-75
2022/11/11 09:50:38;;;;;;;;;;;11.90;99.90;;;;;;5053374;28;19928;-76
2022/11/11 09:53:13;;;;;;;;;;;11.90;99.90;;;;;;5053302;28;19921;-76
2022/11/11 09:55:44;;;;;;;;;;;12.10;99.90;;;;;;5051403;28;19974;-76
2022/11/11 09:58:18;;;;;;;;;;;12.10;99.90;;;;;;5052817;28;19921;-76
2022/11/11 10:00:50;;;;;;;;;;;12.10;99.90;;;;;;5034951;28;19929;-76
2022/11/11 10:03:18;;;;;;;;;;;11.90;99.90;;;;;;5053177;28;19928;-76
2022/11/11 10:06:16;;;;;;;;;;;12.00;99.90;;;;;;5046248;28;20391;-76
2022/11/11 10:08:45;;;;;;;;;;;11.90;99.90;;;;;;5009570;28;20008;-76
2022/11/11 10:11:15;;;;;;;;;;;12.20;99.90;;;;;;5047869;28;19920;-76
2022/11/11 10:13:40;;;;;;;;;;;12.00;99.90;;;;;;5044669;28;19927;-75
2022/11/11 10:16:12;;;;;;;;;;;12.00;99.90;;;;;;5051822;28;20721;-75
2022/11/11 10:18:38;;;;;;;;;;;12.20;99.90;;;;;;5051600;28;19921;-75
2022/11/11 10:21:07;;;;;;;;;;;12.30;99.90;;;;;;5051650;28;19928;-76
2022/11/11 10:23:35;;;;;;;;;;;12.10;99.90;;;;;;5053728;28;19925;-75
2022/11/11 10:26:02;;;;;;;;;;;12.10;99.90;;;;;;5064972;28;19931;-75
2022/11/11 10:28:31;;;;;;;;;;;12.00;99.90;;;;;;5051129;28;19921;-76
2022/11/11 10:31:00;;;;;;;;;;;12.00;99.90;;;;;;5052030;28;20408;-76
2022/11/11 10:33:32;;;;;;;;;;;12.00;99.90;;;;;;5051359;28;19956;-76
2022/11/11 10:36:00;;;;;;;;;;;12.10;99.90;;;;;;5031270;28;19921;-76
2022/11/11 10:38:38;;;;;;;;;;;12.30;99.90;;;;;;5040941;28;19926;-75
2022/11/11 10:41:09;;;;;;;;;;;12.20;99.90;;;;;;5061394;28;19925;-76
2022/11/11 10:43:35;;;;;;;;;;;12.40;99.90;;;;;;5071421;28;19943;-75
2022/11/11 10:46:13;;;;;;;;;;;12.40;99.90;;;;;;5060446;28;19936;-74
2022/11/11 10:49:01;;;;;;;;;;;12.20;99.90;;;;;;5052585;28;19920;-75
2022/11/11 10:51:29;;;;;;;;;;;12.10;99.90;;;;;;5041784;28;19979;-75
2022/11/11 10:54:10;;;;;;;;;;;12.20;99.90;;;;;;5069046;28;19925;-75
2022/11/11 10:56:38;;;;;;;;;;;12.10;99.90;;;;;;5071527;28;20178;-74
2022/11/11 10:59:04;;;;;;;;;;;12.00;99.90;;;;;;5054193;28;19968;-75
2022/11/11 11:01:30;;;;;;;;;;;;;;;;;;5052307;28;19976;-75
2022/11/11 11:03:59;;;;;;;;;;;12.10;99.90;;;;;;5051507;28;19929;-74
2022/11/11 11:06:27;;;;;;;;;;;11.90;99.90;;;;;;5060642;28;19960;-74
2022/11/11 11:09:05;;;;;;;;;;;11.80;99.90;;;;;;5054741;28;20409;-75
2022/11/11 11:11:49;;;;;;;;;;;12.20;99.90;;;;;;5033827;28;20371;-75
2022/11/11 11:14:18;;;;;;;;;;;12.00;99.90;;;;;;5049000;28;19929;-73
2022/11/11 11:16:50;;;;;;;;;;;12.00;99.90;;;;;;5047690;28;19927;-75
2022/11/11 11:19:21;;;;;;;;;;;11.90;99.90;;;;;;5050755;28;19993;-75
2022/11/11 11:21:51;;;;;;;;;;;12.20;99.90;;;;;;5062221;28;19921;-76
2022/11/11 11:24:21;;;;;;;;;;;11.90;99.90;;;;;;5049594;28;20367;-75
2022/11/11 11:26:50;;;;;;;;;;;11.90;99.90;;;;;;5043991;28;21871;-75
2022/11/11 11:29:25;;;;;;;;;;;12.30;99.90;;;;;;5022946;28;20421;-75
2022/11/11 11:31:51;;;;;;;;;;;11.80;99.90;;;;;;5034371;28;19931;-74
2022/11/11 11:34:16;;;;;;;;;;;12.20;99.90;;;;;;5044663;28;19921;-74
2022/11/11 11:36:42;;;;;;;;;;;11.90;99.90;;;;;;5042057;28;20205;-75
2022/11/11 11:39:08;;;;;;;;;;;;;;;;;;5045117;28;19972;-74
2022/11/11 11:41:44;;;;;;;;;;;12.20;99.90;;;;;;5040305;28;19925;-74
2022/11/11 11:44:28;;;;;;;;;;;12.10;99.90;;;;;;5040742;28;20309;-74
2022/11/11 11:46:56;;;;;;;;;;;12.30;99.90;;;;;;5041430;28;20007;-75
2022/11/11 11:49:29;;;;;;;;;;;12.00;99.90;;;;;;5046393;28;19933;-74
2022/11/11 11:52:13;;;;;;;;;;;12.00;99.90;;;;;;5048711;28;20007;-74
2022/11/11 11:54:44;;;;;;;;;;;12.10;99.90;;;;;;5029741;28;20375;-74
2022/11/11 11:57:22;;;;;;;;;;;12.20;99.90;;;;;;5060144;28;19943;-75
2022/11/11 11:59:52;;;;;;;;;;;12.10;99.90;;;;;;5048231;28;20333;-75
2022/11/11 12:02:37;;;;;;;;;;;12.10;99.90;;;;;;5049401;28;19990;-74
2022/11/11 12:05:05;;;;;;;;;;;12.10;99.90;;;;;;5045869;28;20008;-75
2022/11/11 12:07:46;;;;;;;;;;;12.10;99.90;;;;;;5049252;28;19927;-74
2022/11/11 12:10:11;;;;;;;;;;;12.10;99.90;;;;;;5049417;28;19921;-75
2022/11/11 12:12:46;;;;;;;;;;;12.20;99.90;;;;;;5033121;28;19921;-75
2022/11/11 12:15:30;;;;;;;;;;;12.40;99.90;;;;;;5052680;28;19983;-75
2022/11/11 12:18:08;;;;;;;;;;;12.10;99.90;;;;;;5049375;28;19921;-74
2022/11/11 12:20:40;;;;;;;;;;;12.10;99.90;;;;;;5047532;28;19920;-73
2022/11/11 12:23:06;;;;;;;;;;;;;;;;;;5048985;28;19929;-75
2022/11/11 12:25:46;;;;;;;;;;;12.00;99.90;;;;;;5065953;28;20054;-74
2022/11/11 12:28:12;;;;;;;;;;;12.00;99.90;;;;;;5082548;22;19931;-73
2022/11/11 12:30:41;;;;;;;;;;;11.90;99.90;;;;;;5050599;28;19920;-73
2022/11/11 12:33:06;;;;;;;;;;;11.80;99.90;;;;;;5050800;28;19921;-73
2022/11/11 12:35:41;;;;;;;;;;;12.20;99.90;;;;;;5049050;28;19921;-73
2022/11/11 12:38:07;;;;;;;;;;;;;;;;;;5051524;28;20414;-73
2022/11/11 12:40:32;;;;;;;;;;;11.90;99.90;;;;;;5068276;28;19950;-73
2022/11/11 12:43:08;;;;;;;;;;;12.10;99.90;;;;;;5069666;28;19924;-74
2022/11/11 12:45:42;;;;;;;;;;;12.10;99.90;;;;;;5065662;28;20054;-74
2022/11/11 12:48:26;;;;;;;;;;;12.10;99.90;;;;;;5049729;28;20010;-73
2022/11/11 12:50:54;;;;;;;;;;;12.20;99.90;;;;;;5050707;28;20047;-73
2022/11/11 12:53:29;;;;;;;;;;;13.00;99.90;;;;;;5067036;28;19928;-73
2022/11/11 12:56:13;;;;;;;;;;;12.00;99.90;;;;;;5066491;28;19931;-73
2022/11/11 12:58:45;;;;;;;;;;;12.00;99.90;;;;;;5068166;28;20277;-73
2022/11/11 13:01:23;;;;;;;;;;;12.20;99.90;;;;;;5052543;28;20283;-73
2022/11/11 13:03:48;;;;;;;;;;;12.10;99.90;;;;;;5062335;28;19940;-72
2022/11/11 13:06:40;;;;;;;;;;;11.90;99.90;;;;;;5065639;28;19931;-72
2022/11/11 13:09:08;;;;;;;;;;;12.20;99.90;;;;;;5032557;28;19920;-73
2022/11/11 13:11:58;;;;;;;;;;;12.10;99.90;;;;;;5049518;28;20361;-73
2022/11/11 13:14:34;;;;;;;;;;;11.90;99.90;;;;;;5063154;28;19927;-73
2022/11/11 13:17:00;;;;;;;;;;;12.10;99.90;;;;;;5070619;28;19927;-73
2022/11/11 13:19:40;;;;;;;;;;;11.90;99.90;;;;;;5054817;28;20012;-72
2022/11/11 13:22:16;;;;;;;;;;;12.00;99.90;;;;;;5087502;28;20214;-72
2022/11/11 13:24:42;;;;;;;;;;;12.30;99.90;;;;;;5078544;28;19921;-72
2022/11/11 13:27:22;;;;;;;;;;;12.00;99.90;;;;;;5083528;28;20190;-74
2022/11/11 13:29:54;;;;;;;;;;;12.00;99.90;;;;;;5062554;28;20394;-72
2022/11/11 13:32:22;;;;;;;;;;;12.00;99.90;;;;;;5061383;28;19928;-72
2022/11/11 13:34:48;;;;;;;;;;;12.00;99.90;;;;;;5073358;28;19931;-72
2022/11/11 13:37:20;;;;;;;;;;;12.00;99.90;;;;;;5071579;28;19920;-72
2022/11/11 13:39:47;;;;;;;;;;;12.20;99.90;;;;;;5067186;28;19920;-72
2022/11/11 13:42:19;;;;;;;;;;;12.20;99.90;;;;;;5069043;28;19951;-72
2022/11/11 13:44:55;;;;;;;;;;;12.30;99.90;;;;;;5066638;28;19925;-71
2022/11/11 13:47:41;;;;;;;;;;;12.20;99.90;;;;;;5069248;28;19964;-72
2022/11/11 13:50:22;;;;;;;;;;;12.20;99.90;;;;;;5055017;28;19921;-73
2022/11/11 13:53:01;;;;;;;;;;;12.10;99.90;;;;;;5069670;28;19931;-73
2022/11/11 13:55:36;;;;;;;;;;;12.20;99.90;;;;;;5070388;28;19920;-71
2022/11/11 13:58:03;;;;;;;;;;;12.30;99.90;;;;;;5069180;28;19955;-72
2022/11/11 14:00:31;;;;;;;;;;;12.20;99.90;;;;;;5072249;28;19921;-72
2022/11/11 14:03:26;;;;;;;;;;;12.40;99.90;;;;;;5054583;28;19932;-72
2022/11/11 14:06:15;;;;;;;;;;;12.10;99.90;;;;;;5042982;28;20004;-72
2022/11/11 14:08:46;;;;;;;;;;;12.20;99.90;;;;;;5036914;28;19921;-72
2022/11/11 14:11:26;;;;;;;;;;;12.00;99.90;;;;;;5036203;28;19925;-72
2022/11/11 14:13:51;;;;;;;;;;;12.10;99.90;;;;;;5053636;28;20004;-71
2022/11/11 14:16:49;;;;;;;;;;;12.20;99.90;;;;;;5053817;28;19995;-72
2022/11/11 14:19:17;;;;;;;;;;;12.00;99.90;;;;;;4986557;28;20060;-72
2022/11/11 14:21:56;;;;;;;;;;;12.20;99.90;;;;;;5035952;28;19921;-72
2022/11/11 14:24:28;;;;;;;;;;;12.10;99.90;;;;;;5052796;28;19925;-72
2022/11/11 14:27:16;;;;;;;;;;;12.00;99.90;;;;;;5052344;28;19928;-72
2022/11/11 14:29:50;;;;;;;;;;;12.00;99.90;;;;;;5045513;28;19960;-72
2022/11/11 14:32:26;;;;;;;;;;;12.20;99.90;;;;;;5051689;28;20011;-72
2022/11/11 14:35:07;;;;;;;;;;;12.10;99.90;;;;;;5051217;28;19925;-72
2022/11/11 14:37:50;;;;;;;;;;;12.40;99.90;;;;;;5034382;28;19920;-72
2022/11/11 14:40:23;;;;;;;;;;;12.00;99.90;;;;;;5050428;28;20313;-70
2022/11/11 14:42:49;;;;;;;;;;;12.10;99.90;;;;;;5034886;28;19975;-71
2022/11/11 14:45:30;;;;;;;;;;;12.20;99.90;;;;;;5060799;28;19924;-71
2022/11/11 14:47:56;;;;;;;;;;;12.10;99.90;;;;;;5073217;28;20129;-71
2022/11/11 14:50:31;;;;;;;;;;;12.10;99.90;;;;;;5072033;28;19931;-71
2022/11/11 14:52:56;;;;;;;;;;;;;;;;;;5071432;28;20466;-71
2022/11/11 14:55:27;;;;;;;;;;;12.10;99.90;;;;;;5058911;28;20019;-71
2022/11/11 14:57:55;;;;;;;;;;;12.00;99.90;;;;;;5069086;28;19974;-73
2022/11/11 15:00:25;;;;;;;;;;;12.00;99.90;;;;;;5072283;28;20291;-71
2022/11/11 15:03:11;;;;;;;;;;;12.20;99.90;;;;;;5070573;28;19924;-71
2022/11/11 15:05:47;;;;;;;;;;;12.10;99.90;;;;;;5067071;28;19920;-72
2022/11/11 15:08:34;;;;;;;;;;;12.00;99.90;;;;;;5071697;28;19947;-71
2022/11/11 15:10:59;;;;;;;;;;;12.00;99.90;;;;;;5071772;28;19928;-71
2022/11/11 15:13:39;;;;;;;;;;;11.90;99.90;;;;;;5060112;28;19920;-72
2022/11/11 15:16:23;;;;;;;;;;;11.90;99.90;;;;;;5051861;28;19928;-71
2022/11/11 15:18:52;;;;;;;;;;;11.90;99.90;;;;;;5085749;28;20004;-71
2022/11/11 15:21:23;;;;;;;;;;;12.00;99.90;;;;;;5071146;28;19920;-72
2022/11/11 15:24:00;;;;;;;;;;;12.20;99.90;;;;;;5070603;28;20411;-72
2022/11/11 15:26:35;;;;;;;;;;;11.90;99.90;;;;;;5072518;28;19920;-72
2022/11/11 15:29:16;;;;;;;;;;;11.80;99.90;;;;;;5055650;28;19928;-71
2022/11/11 15:32:01;;;;;;;;;;;11.90;99.90;;;;;;5052770;28;19928;-71
2022/11/11 15:34:42;;;;;;;;;;;11.80;99.90;;;;;;5052903;28;19920;-71
2022/11/11 15:37:12;;;;;;;;;;;11.90;99.90;;;;;;5050408;28;20306;-71
2022/11/11 15:39:40;;;;;;;;;;;12.00;99.90;;;;;;5057255;28;19920;-71
2022/11/11 15:42:10;;;;;;;;;;;12.00;99.90;;;;;;5062655;28;19929;-71
2022/11/11 15:44:36;;;;;;;;;;;12.00;99.90;;;;;;5044539;28;19925;-71
2022/11/11 15:47:02;;;;;;;;;;;12.00;99.90;;;;;;5063507;28;19931;-71
2022/11/11 15:49:44;;;;;;;;;;;11.90;99.90;;;;;;5051970;28;19925;-71
2022/11/11 15:52:21;;;;;;;;;;;11.90;99.90;;;;;;5051119;28;20360;-71
2022/11/11 15:54:47;;;;;;;;;;;12.00;99.90;;;;;;5050327;28;20386;-73
2022/11/11 15:57:19;;;;;;;;;;;12.00;99.90;;;;;;5050969;28;19975;-73
2022/11/11 15:59:44;;;;;;;;;;;12.00;99.90;;;;;;5051760;28;19925;-71